createdAt,value
2024-04-16T00:01:15.744Z,98281.81
2024-04-16T00:04:02.183Z,98299.91
2024-04-16T00:06:50.455Z,98278.41
2024-04-16T00:09:36.975Z,98305.88
2024-04-16T00:12:23.540Z,98290.50
2024-04-16T00:15:30.360Z,98283.63
2024-04-16T00:18:17.627Z,98301.53
2024-04-16T00:21:04.374Z,98299.00
2024-04-16T00:23:50.744Z,98279.34
2024-04-16T00:26:37.447Z,98269.91
2024-04-16T00:29:24.010Z,98263.91
2024-04-16T00:32:10.628Z,98236.53
2024-04-16T00:34:57.377Z,98242.53
2024-04-16T00:37:44.068Z,98256.25
2024-04-16T00:40:30.919Z,98215.03
2024-04-16T00:43:21.818Z,98280.19
2024-04-16T00:46:08.920Z,98264.72
2024-04-16T00:48:55.513Z,98256.19
2024-04-16T00:51:42.149Z,98194.44
2024-04-16T00:54:29.007Z,98250.31
2024-04-16T00:57:15.478Z,98239.09
2024-04-16T01:00:01.961Z,98191.09
2024-04-16T01:02:48.578Z,98242.53
2024-04-16T01:05:35.762Z,98209.97
2024-04-16T01:08:22.081Z,98203.19
2024-04-16T01:11:08.914Z,98171.47
2024-04-16T01:13:56.760Z,98239.25
2024-04-16T01:16:43.163Z,98225.50
2024-04-16T01:19:29.710Z,98249.53
2024-04-16T01:22:16.407Z,98218.69
2024-04-16T01:25:02.988Z,98216.06
2024-04-16T01:27:49.630Z,98234.09
2024-04-16T01:30:36.171Z,98211.81
2024-04-16T01:33:22.992Z,98174.88
2024-04-16T01:36:09.538Z,98195.47
2024-04-16T01:38:56.099Z,98188.63
2024-04-16T01:41:42.808Z,98228.88
2024-04-16T01:44:29.298Z,98215.16
2024-04-16T01:47:15.876Z,98213.47
2024-04-16T01:50:02.395Z,98225.50
2024-04-16T01:52:49.374Z,98196.31
2024-04-16T01:55:36.692Z,98193.75
2024-04-16T01:58:23.245Z,98219.38
2024-04-16T02:01:09.986Z,98207.38
2024-04-16T02:03:56.722Z,98125.09
2024-04-16T02:06:43.381Z,98179.13
2024-04-16T02:09:29.841Z,98185.97
2024-04-16T02:12:16.478Z,98200.53
2024-04-16T02:15:03.005Z,98159.44
2024-04-16T02:17:49.968Z,98119.88
2024-04-16T02:20:36.575Z,98178.19
2024-04-16T02:23:22.825Z,98169.66
2024-04-16T02:26:09.679Z,98151.66
2024-04-16T02:28:55.970Z,98125.88
2024-04-16T02:31:42.781Z,98148.13
2024-04-16T02:34:29.367Z,98172.16
2024-04-16T02:37:15.813Z,98162.72
2024-04-16T02:40:02.489Z,98106.25
2024-04-16T02:42:49.224Z,98136.28
2024-04-16T02:45:35.722Z,98150.84
2024-04-16T02:48:22.286Z,98153.41
2024-04-16T02:51:14.785Z,98181.69
2024-04-16T02:54:01.745Z,98172.19
2024-04-16T02:56:48.415Z,98134.47
2024-04-16T02:59:34.852Z,98174.00
2024-04-16T03:02:21.608Z,98196.28
2024-04-16T03:05:08.084Z,98199.69
2024-04-16T03:07:54.561Z,98191.13
2024-04-16T03:10:41.474Z,98179.13
2024-04-16T03:13:27.953Z,98182.56
2024-04-16T03:16:14.622Z,98121.72
2024-04-16T03:19:01.341Z,98165.38
2024-04-16T03:21:49.311Z,98192.69
2024-04-16T03:24:36.704Z,98190.06
2024-04-16T03:27:23.311Z,98201.19
2024-04-16T03:30:10.304Z,98150.53
2024-04-16T03:32:56.698Z,98185.72
2024-04-16T03:35:43.533Z,98201.09
2024-04-16T03:38:30.726Z,98200.94
2024-04-16T03:41:17.058Z,98225.75
2024-04-16T03:44:03.728Z,98207.72
2024-04-16T03:46:50.484Z,98194.06
2024-04-16T03:49:37.356Z,98189.69
2024-04-16T03:52:23.819Z,98218.06
2024-04-16T03:55:10.533Z,98158.06
2024-04-16T03:57:56.857Z,98227.63
2024-04-16T04:01:04.301Z,98210.59
2024-04-16T04:03:51.124Z,98204.56
2024-04-16T04:06:37.969Z,98220.09
2024-04-16T04:09:24.563Z,98209.03
2024-04-16T04:12:11.742Z,98222.66
2024-04-16T04:14:58.240Z,98208.06
2024-04-16T04:17:44.967Z,98189.16
2024-04-16T04:20:31.550Z,98147.91
2024-04-16T04:23:18.250Z,98225.91
2024-04-16T04:26:06.425Z,98220.81
2024-04-16T04:28:52.808Z,98221.66
2024-04-16T04:31:39.725Z,98231.16
2024-04-16T04:34:27.231Z,98214.88
2024-04-16T04:37:13.621Z,98202.88
2024-04-16T04:40:00.468Z,98162.56
2024-04-16T04:42:47.077Z,98214.13
2024-04-16T04:45:34.011Z,98214.22
2024-04-16T04:48:21.599Z,98208.19
2024-04-16T04:51:08.633Z,98227.06
2024-04-16T04:53:55.862Z,98222.00
2024-04-16T04:56:42.334Z,98216.00
2024-04-16T04:59:29.465Z,98231.44
2024-04-16T05:02:16.083Z,98234.00
2024-04-16T05:05:02.687Z,98185.94
2024-04-16T05:07:50.031Z,98248.63
2024-04-16T05:10:36.446Z,98232.34
2024-04-16T05:13:23.144Z,98222.00
2024-04-16T05:16:09.639Z,98236.63
2024-04-16T05:18:56.042Z,98247.75
2024-04-16T05:21:42.647Z,98223.81
2024-04-16T05:24:29.301Z,98212.69
2024-04-16T05:27:15.665Z,98198.97
2024-04-16T05:30:02.460Z,98230.69
2024-04-16T05:32:49.347Z,98175.81
2024-04-16T05:35:35.982Z,98224.75
2024-04-16T05:38:22.555Z,98231.56
2024-04-16T05:41:09.101Z,98249.59
2024-04-16T05:43:55.722Z,98236.72
2024-04-16T05:46:42.401Z,98250.50
2024-04-16T05:49:29.090Z,98208.47
2024-04-16T05:52:15.343Z,98232.53
2024-04-16T05:55:02.398Z,98269.44
2024-04-16T05:57:48.987Z,98192.28
2024-04-16T06:00:38.574Z,98240.28
2024-04-16T06:03:25.635Z,98200.00
2024-04-16T06:06:11.895Z,98253.16
2024-04-16T06:08:58.516Z,98229.13
2024-04-16T06:11:45.138Z,98226.53
2024-04-16T06:14:31.944Z,98251.38
2024-04-16T06:17:18.501Z,98232.47
2024-04-16T06:20:05.387Z,98219.66
2024-04-16T06:22:55.170Z,98193.06
2024-04-16T06:25:42.728Z,98203.38
2024-04-16T06:28:29.127Z,98260.81
2024-04-16T06:31:17.297Z,98217.97
2024-04-16T06:34:05.163Z,98238.47
2024-04-16T06:36:51.964Z,98233.34
2024-04-16T06:39:38.542Z,98247.94
2024-04-16T06:42:25.052Z,98229.06
2024-04-16T06:45:11.792Z,98175.97
2024-04-16T06:47:58.309Z,98227.31
2024-04-16T06:50:48.308Z,98177.63
2024-04-16T06:53:34.773Z,98232.44
2024-04-16T06:56:21.282Z,98217.81
2024-04-16T06:59:09.344Z,98234.91
2024-04-16T07:01:55.846Z,98244.31
2024-04-16T07:04:42.549Z,98244.25
2024-04-16T07:07:29.161Z,98220.22
2024-04-16T07:10:15.933Z,98235.63
2024-04-16T07:13:02.537Z,98235.69
2024-04-16T07:15:49.104Z,98232.16
2024-04-16T07:18:35.942Z,98173.84
2024-04-16T07:21:22.472Z,98216.59
2024-04-16T07:24:08.972Z,98224.25
2024-04-16T07:26:55.566Z,98159.91
2024-04-16T07:29:43.785Z,98220.63
2024-04-16T07:32:30.244Z,98216.06
2024-04-16T07:35:16.700Z,98203.22
2024-04-16T07:38:03.520Z,98190.97
2024-04-16T07:40:56.875Z,98202.13
2024-04-16T07:43:43.235Z,98181.84
2024-04-16T07:46:29.982Z,98193.97
2024-04-16T07:49:17.076Z,98195.59
2024-04-16T07:52:03.665Z,98195.50
2024-04-16T07:54:50.506Z,98185.78
2024-04-16T07:57:37.072Z,98199.19
2024-04-16T08:00:27.028Z,98165.59
2024-04-16T08:03:13.861Z,98176.84
2024-04-16T08:06:00.263Z,98177.53
2024-04-16T08:08:48.452Z,98161.41
2024-04-16T08:11:34.915Z,98181.03
2024-04-16T08:14:23.221Z,98182.84
2024-04-16T08:17:10.125Z,98192.56
2024-04-16T08:19:56.557Z,98168.72
2024-04-16T08:22:42.871Z,98142.91
2024-04-16T08:25:29.673Z,98162.22
2024-04-16T08:28:16.293Z,98176.66
2024-04-16T08:31:04.520Z,98180.63
2024-04-16T08:33:51.252Z,98095.47
2024-04-16T08:36:37.815Z,98192.44
2024-04-16T08:39:24.660Z,98179.91
2024-04-16T08:42:12.247Z,98137.44
2024-04-16T08:45:02.016Z,98145.91
2024-04-16T08:47:49.015Z,98133.84
2024-04-16T08:50:37.611Z,98103.06
2024-04-16T08:53:25.808Z,98124.78
2024-04-16T08:56:12.450Z,98130.56
2024-04-16T08:58:59.001Z,98128.81
2024-04-16T09:01:50.997Z,98114.66
2024-04-16T09:04:39.050Z,98126.28
2024-04-16T09:07:28.872Z,98126.78
2024-04-16T09:10:23.254Z,98113.47
2024-04-16T09:13:12.137Z,98164.44
2024-04-16T09:15:59.738Z,98146.84
2024-04-16T09:18:46.070Z,98163.84
2024-04-16T09:21:32.421Z,98169.16
2024-04-16T09:24:22.302Z,98142.44
2024-04-16T09:27:09.620Z,98105.38
2024-04-16T09:30:11.872Z,98138.72
2024-04-16T09:33:00.725Z,98153.56
2024-04-16T09:35:47.856Z,98154.59
2024-04-16T09:38:42.495Z,98161.34
2024-04-16T09:41:29.999Z,98145.22
2024-04-16T09:44:17.606Z,98162.63
2024-04-16T09:47:05.230Z,98150.78
2024-04-16T09:50:07.051Z,98182.91
2024-04-16T09:53:03.429Z,98160.69
2024-04-16T09:55:51.671Z,98184.47
2024-04-16T09:58:38.694Z,98181.28
2024-04-16T10:01:25.351Z,98170.53
2024-04-16T10:04:13.653Z,98139.94
2024-04-16T10:07:00.480Z,98159.56
2024-04-16T10:09:47.019Z,98195.47
2024-04-16T10:12:35.086Z,98164.75
2024-04-16T10:15:22.789Z,98129.72
2024-04-16T10:18:11.828Z,98160.00
2024-04-16T10:21:01.385Z,98105.47
2024-04-16T10:23:47.816Z,98193.53
2024-04-16T10:37:20.899Z,98139.03
2024-04-16T10:40:08.591Z,98130.00
2024-04-16T10:42:56.386Z,98157.50
2024-04-16T10:45:46.215Z,98130.81
2024-04-16T10:48:33.859Z,98126.28
2024-04-16T10:51:20.637Z,98113.28
2024-04-16T10:54:08.736Z,98132.38
2024-04-16T10:56:55.502Z,98133.91
2024-04-16T10:59:48.874Z,98146.66
2024-04-16T11:02:41.113Z,98149.22
2024-04-16T11:05:27.566Z,98134.47
2024-04-16T11:08:14.662Z,98077.06
2024-04-16T11:11:01.849Z,98113.97
2024-04-16T11:13:49.418Z,98128.13
2024-04-16T11:16:36.418Z,98165.38
2024-04-16T11:19:23.483Z,98125.38
2024-04-16T11:22:09.969Z,98149.44
2024-04-16T11:24:57.817Z,98120.41
2024-04-16T11:27:45.473Z,98145.25
2024-04-16T11:30:32.689Z,98090.28
2024-04-16T11:33:23.446Z,98124.31
2024-04-16T11:36:18.618Z,98084.72
2024-04-16T11:39:07.185Z,98095.66
2024-04-16T11:41:54.304Z,98123.16
2024-04-16T11:44:41.892Z,98177.22
2024-04-16T11:47:28.726Z,98176.41
2024-04-16T11:50:15.152Z,98128.00
2024-04-16T11:53:02.083Z,98163.16
2024-04-16T11:55:48.710Z,98086.38
2024-04-16T11:58:36.009Z,98165.19
2024-04-16T12:01:22.539Z,98116.22
2024-04-16T12:04:09.652Z,98098.47
2024-04-16T12:06:57.137Z,98156.69
2024-04-16T12:09:43.573Z,98144.47
2024-04-16T12:12:30.227Z,98159.56
2024-04-16T12:15:17.930Z,98154.88
2024-04-16T12:18:04.977Z,98102.00
2024-04-16T12:20:51.677Z,98149.16
2024-04-16T12:23:38.465Z,98143.09
2024-04-16T12:26:24.685Z,98127.25
2024-04-16T12:29:11.072Z,98128.72
2024-04-16T12:31:59.332Z,98089.34
2024-04-16T12:34:47.114Z,98121.44
2024-04-16T12:37:33.693Z,98107.53
2024-04-16T12:40:22.325Z,98106.63
2024-04-16T12:43:09.730Z,98084.13
2024-04-16T12:46:00.251Z,98105.03
2024-04-16T12:48:46.979Z,98080.97
2024-04-16T12:51:33.746Z,98092.84
2024-04-16T12:54:20.940Z,98098.81
2024-04-16T12:57:07.420Z,98070.03
2024-04-16T12:59:54.122Z,98043.31
2024-04-16T13:02:40.669Z,98031.41
2024-04-16T13:05:27.746Z,98074.66
2024-04-16T13:08:16.782Z,98054.72
2024-04-16T13:11:06.710Z,98063.63
2024-04-16T13:13:53.630Z,98068.16
2024-04-16T13:16:40.172Z,98041.00
2024-04-16T13:19:26.810Z,98035.31
2024-04-16T13:22:13.416Z,98061.81
2024-04-16T13:24:59.986Z,98067.00
2024-04-16T13:27:46.677Z,98045.09
2024-04-16T13:30:33.437Z,97994.38
2024-04-16T13:33:20.353Z,98042.81
2024-04-16T13:36:06.763Z,98029.59
2024-04-16T13:38:54.036Z,98056.13
2024-04-16T13:41:40.773Z,98040.09
2024-04-16T13:44:27.483Z,98030.75
2024-04-16T13:47:13.736Z,98034.75
2024-04-16T13:50:00.390Z,98040.56
2024-04-16T13:52:48.837Z,97980.53
2024-04-16T13:55:36.787Z,98044.34
2024-04-16T13:58:23.600Z,98047.59
2024-04-16T14:01:10.149Z,98057.69
2024-04-16T14:03:56.708Z,98052.25
2024-04-16T14:06:43.515Z,98019.34
2024-04-16T14:09:30.031Z,98021.25
2024-04-16T14:12:16.415Z,98036.34
2024-04-16T14:15:03.317Z,98040.09
2024-04-16T14:17:50.162Z,98031.94
2024-04-16T14:20:36.730Z,98024.66
2024-04-16T14:23:23.117Z,97995.28
2024-04-16T14:26:09.720Z,98004.13
2024-04-16T14:28:56.250Z,98012.63
2024-04-16T14:31:42.973Z,98026.28
2024-04-16T14:34:30.178Z,98007.56
2024-04-16T14:37:17.096Z,98016.41
2024-04-16T14:40:04.306Z,97959.66
2024-04-16T14:42:50.864Z,98003.41
2024-04-16T14:45:37.694Z,97978.97
2024-04-16T14:48:24.327Z,98009.50
2024-04-16T14:51:10.759Z,97982.25
2024-04-16T14:53:57.402Z,97943.72
2024-04-16T14:56:45.583Z,98006.88
2024-04-16T14:59:32.746Z,97974.94
2024-04-16T15:02:19.323Z,98019.16
2024-04-16T15:05:05.886Z,98018.88
2024-04-16T15:07:52.573Z,98020.13
2024-04-16T15:10:39.275Z,98015.63
2024-04-16T15:13:26.055Z,98033.91
2024-04-16T15:16:12.854Z,98005.56
2024-04-16T15:18:59.310Z,98022.91
2024-04-16T15:21:45.943Z,98033.59
2024-04-16T15:24:32.560Z,98007.84
2024-04-16T15:27:22.287Z,97985.34
2024-04-16T15:30:09.223Z,98001.44
2024-04-16T15:32:56.018Z,97983.06
2024-04-16T15:35:53.198Z,98011.06
2024-04-16T15:38:39.578Z,98006.16
2024-04-16T15:41:27.098Z,97946.19
2024-04-16T15:44:14.061Z,97985.38
2024-04-16T15:47:00.797Z,97962.69
2024-04-16T15:49:47.448Z,98001.19
2024-04-16T15:52:34.158Z,97984.75
2024-04-16T15:55:20.684Z,97951.63
2024-04-16T15:58:07.301Z,97937.84
2024-04-16T16:00:54.296Z,97963.63
2024-04-16T16:03:41.688Z,97923.22
2024-04-16T16:06:29.813Z,97941.75
2024-04-16T16:09:17.381Z,97944.00
2024-04-16T16:12:05.383Z,97947.44
2024-04-16T16:14:52.092Z,97921.94
2024-04-16T16:17:38.705Z,97909.72
2024-04-16T16:20:25.282Z,97938.50
2024-04-16T16:23:11.722Z,97921.09
2024-04-16T16:25:58.297Z,97983.81
2024-04-16T16:28:45.005Z,98010.53
2024-04-16T16:31:35.307Z,98004.69
2024-04-16T16:34:21.955Z,98027.00
2024-04-16T16:37:08.518Z,98039.03
2024-04-16T16:39:55.269Z,98013.72
2024-04-16T16:42:42.039Z,98018.66
2024-04-16T16:45:28.273Z,98035.94
2024-04-16T16:48:15.782Z,98005.22
2024-04-16T16:51:02.258Z,98000.09
2024-04-16T16:53:48.754Z,98003.50
2024-04-16T16:56:35.476Z,97996.56
2024-04-16T16:59:22.131Z,97934.09
2024-04-16T17:02:08.726Z,97988.69
2024-04-16T17:04:55.383Z,97980.81
2024-04-16T17:07:42.160Z,97949.09
2024-04-16T17:10:28.440Z,97984.06
2024-04-16T17:13:17.064Z,97962.50
2024-04-16T17:16:03.984Z,97968.44
2024-04-16T17:18:50.671Z,97978.66
2024-04-16T17:21:37.175Z,97965.94
2024-04-16T17:24:23.897Z,97992.56
2024-04-16T17:27:10.599Z,97981.53
2024-04-16T17:29:56.981Z,97986.84
2024-04-16T17:32:43.808Z,97996.31
2024-04-16T17:35:30.292Z,97981.91
2024-04-16T17:38:17.084Z,97978.59
2024-04-16T17:41:05.982Z,97967.66
2024-04-16T17:43:56.516Z,97986.50
2024-04-16T17:46:43.045Z,98002.00
2024-04-16T17:49:29.483Z,98014.97
2024-04-16T17:52:16.317Z,98054.41
2024-04-16T17:55:03.020Z,98029.91
2024-04-16T17:57:50.990Z,98085.84
2024-04-16T18:00:37.518Z,98076.03
2024-04-16T18:03:24.212Z,98015.50
2024-04-16T18:06:10.687Z,98052.47
2024-04-16T18:08:57.517Z,98028.56
2024-04-16T18:11:44.162Z,98020.03
2024-04-16T18:14:30.816Z,98031.16
2024-04-16T18:17:17.342Z,98024.34
2024-04-16T18:20:04.238Z,97995.25
2024-04-16T18:22:50.648Z,98079.16
2024-04-16T18:25:38.610Z,98069.72
2024-04-16T18:28:25.384Z,98095.44
2024-04-16T18:31:11.937Z,98102.25
2024-04-16T18:33:58.790Z,98082.56
2024-04-16T18:36:45.905Z,98109.94
2024-04-16T18:39:32.258Z,98115.09
2024-04-16T18:42:18.843Z,98068.88
2024-04-16T18:45:05.901Z,98126.22
2024-04-16T18:47:52.511Z,98118.53
2024-04-16T18:50:39.250Z,98128.81
2024-04-16T18:53:28.521Z,98103.13
2024-04-16T18:56:15.495Z,98115.13
2024-04-16T18:59:02.662Z,98121.97
2024-04-16T19:01:49.058Z,98090.25
2024-04-16T19:04:38.273Z,98086.84
2024-04-16T19:07:26.178Z,98109.97
2024-04-16T19:10:12.707Z,98115.06
2024-04-16T19:13:00.095Z,98112.50
2024-04-16T19:16:00.395Z,98113.38
2024-04-16T19:18:47.107Z,98090.25
2024-04-16T19:21:33.750Z,98106.53
2024-04-16T19:24:20.432Z,98094.50
2024-04-16T19:27:07.994Z,98131.34
2024-04-16T19:29:56.493Z,98121.88
2024-04-16T19:32:43.845Z,98081.66
2024-04-16T19:35:30.447Z,98084.22
2024-04-16T19:38:17.325Z,98117.59
2024-04-16T19:41:03.822Z,98119.34
2024-04-16T19:43:51.565Z,98086.81
2024-04-16T19:46:37.791Z,98077.38
2024-04-16T19:49:24.464Z,98132.19
2024-04-16T19:52:11.038Z,98126.22
2024-04-16T19:54:57.359Z,98086.84
2024-04-16T19:57:44.295Z,98097.97
2024-04-16T20:00:31.146Z,98110.00
2024-04-16T20:03:17.815Z,98119.41
2024-04-16T20:06:10.612Z,98128.00
2024-04-16T20:08:56.907Z,98124.56
2024-04-16T20:11:43.511Z,98134.84
2024-04-16T20:14:34.292Z,98126.31
2024-04-16T20:17:20.955Z,98146.84
2024-04-16T20:20:08.037Z,98100.63
2024-04-16T20:22:54.463Z,98119.47
2024-04-16T20:25:41.099Z,98074.88
2024-04-16T20:28:27.700Z,98083.44
2024-04-16T20:31:14.361Z,98164.00
2024-04-16T20:34:00.960Z,98157.16
2024-04-16T20:36:47.658Z,98128.03
2024-04-16T20:39:34.135Z,98143.44
2024-04-16T20:42:20.782Z,98127.16
2024-04-16T20:45:07.740Z,98146.00
2024-04-16T20:47:54.056Z,98114.31
2024-04-16T20:50:45.009Z,98146.88
2024-04-16T20:53:37.668Z,98146.00
2024-04-16T20:56:24.516Z,98068.88
2024-04-16T20:59:12.379Z,98136.59
2024-04-16T21:01:59.062Z,98144.28
2024-04-16T21:04:45.886Z,98152.88
2024-04-16T21:07:32.405Z,98110.88
2024-04-16T21:10:19.092Z,98158.88
2024-04-16T21:13:05.982Z,98128.88
2024-04-16T21:15:54.027Z,98159.72
2024-04-16T21:18:40.702Z,98170.00
2024-04-16T21:21:27.251Z,98159.69
2024-04-16T21:24:13.840Z,98153.72
2024-04-16T21:27:00.471Z,98139.16
2024-04-16T21:29:47.071Z,98161.44
2024-04-16T21:32:33.831Z,98153.72
2024-04-16T21:35:20.529Z,98150.28
2024-04-16T21:38:07.108Z,98173.41
2024-04-16T21:40:53.726Z,98151.16
2024-04-16T21:43:40.996Z,98155.44
2024-04-16T21:46:27.662Z,98170.00
2024-04-16T21:49:14.267Z,98158.00
2024-04-16T21:52:01.183Z,98157.16
2024-04-16T21:54:47.520Z,98158.84
2024-04-16T21:57:34.323Z,98199.13
2024-04-16T22:00:21.001Z,98186.25
2024-04-16T22:03:07.646Z,98152.03
2024-04-16T22:06:00.103Z,98154.56
2024-04-16T22:08:46.618Z,98120.31
2024-04-16T22:11:33.211Z,98188.88
2024-04-16T22:14:20.288Z,98179.44
2024-04-16T22:17:07.014Z,98169.16
2024-04-16T22:19:53.808Z,98164.84
2024-04-16T22:22:40.539Z,98189.72
2024-04-16T22:25:27.139Z,98164.84
2024-04-16T22:28:14.607Z,98155.44
2024-04-16T22:31:01.243Z,98201.69
2024-04-16T22:33:47.726Z,98176.84
2024-04-16T22:36:38.180Z,98183.72
2024-04-16T22:39:24.329Z,98208.56
2024-04-16T22:42:10.894Z,98189.72
2024-04-16T22:44:57.530Z,98175.13
2024-04-16T22:47:44.178Z,98196.56
2024-04-16T22:50:33.650Z,98183.72
2024-04-16T22:53:21.274Z,98190.59
2024-04-16T22:56:07.957Z,98202.56
2024-04-16T22:58:54.684Z,98156.28
2024-04-16T23:01:41.156Z,98190.56
2024-04-16T23:04:27.896Z,98201.72
2024-04-16T23:07:14.438Z,98205.13
2024-04-16T23:10:01.129Z,98145.13
2024-04-16T23:12:47.723Z,98211.13
2024-04-16T23:15:34.706Z,98194.00
2024-04-16T23:18:21.540Z,98194.00
2024-04-16T23:21:08.203Z,98184.56
2024-04-16T23:23:54.753Z,98139.94
2024-04-16T23:26:41.268Z,98199.09
2024-04-16T23:29:27.913Z,98211.97
2024-04-16T23:32:14.491Z,98179.34
2024-04-16T23:35:01.202Z,98124.50
2024-04-16T23:37:47.436Z,98184.50
2024-04-16T23:40:34.040Z,98194.78
2024-04-16T23:43:20.669Z,98184.50
2024-04-16T23:46:07.349Z,98178.50
2024-04-16T23:48:53.950Z,98147.63
2024-04-16T23:51:40.675Z,98192.19
2024-04-16T23:54:29.850Z,98185.34
2024-04-16T23:57:16.424Z,98163.94
